Time;durP1;ratioP1;P1;durP2;ratioP2;P2;SDS_P1;SDS_P2;PMS_P1;PMS_P2;Temp;Humidity;BMP_temperature;BMP_pressure;BME280_temperature;BME280_humidity;BME280_pressure;Samples;Min_cycle;Max_cycle;Signal;HPM_P1;HPM_P2
2021/11/15 00:38:29;655705.00;2.19;1130.51;0.00;0.00;0.62;;;;;9.60;10.40;;;;;;2267174;61;1398;-88
2021/11/15 00:50:47;872403.00;2.91;1507.70;0.00;0.00;0.62;;;;;9.70;10.60;;;;;;2266035;61;1398;-87
2021/11/15 00:53:14;493041.00;1.64;849.84;0.00;0.00;0.62;;;;;9.80;9.90;;;;;;2264903;61;1017;-86
2021/11/15 01:05:39;1127642.00;3.76;1959.93;56300.00;0.19;98.08;;;;;10.00;6.40;;;;;;2270745;61;985;-87
2021/11/15 01:08:08;1514583.00;5.05;2670.59;90818.00;0.30;157.72;;;;;9.70;10.30;;;;;;2260773;61;1952;-87
2021/11/15 01:13:04;559369.00;1.86;964.11;76582.00;0.26;133.13;;;;;9.40;10.90;;;;;;2270815;61;1292;-85
2021/11/15 01:15:32;557301.00;1.86;960.55;97972.00;0.33;170.07;;;;;9.50;10.50;;;;;;2269312;61;510;-88
2021/11/15 01:18:00;285626.00;0.95;493.21;0.00;0.00;0.62;;;;;9.50;10.50;;;;;;2269303;61;395;-88
2021/11/15 01:20:32;355484.00;1.18;613.29;0.00;0.00;0.62;;;;;9.60;10.50;;;;;;2264810;61;1399;-87
2021/11/15 01:23:01;337927.00;1.13;583.11;0.00;0.00;0.62;;;;;9.60;9.10;;;;;;2265275;61;488;-87
2021/11/15 01:25:28;349430.00;1.16;602.88;0.00;0.00;0.62;;;;;9.60;9.80;;;;;;2265281;61;474;-87
2021/11/15 01:30:25;209457.00;0.70;362.20;0.00;0.00;0.62;;;;;9.80;9.50;;;;;;2270664;61;1304;-87
2021/11/15 01:32:52;182153.00;0.61;315.20;0.00;0.00;0.62;;;;;9.90;8.40;;;;;;2269233;61;496;-87
2021/11/15 01:35:20;428992.00;1.43;739.65;0.00;0.00;0.62;;;;;9.90;8.70;;;;;;2260640;61;921;-87
2021/11/15 01:37:48;219786.00;0.73;379.98;0.00;0.00;0.62;;;;;9.80;9.50;;;;;;2256719;61;891;-87
2021/11/15 01:40:19;372811.00;1.24;643.07;0.00;0.00;0.62;;;;;9.90;8.40;;;;;;2256674;61;1432;-87
2021/11/15 01:42:47;116764.00;0.39;202.50;0.00;0.00;0.62;;;;;9.70;7.70;;;;;;2248678;62;900;-88
2021/11/15 01:45:17;220357.00;0.73;380.96;0.00;0.00;0.62;;;;;9.60;10.80;;;;;;2242179;62;919;-88
2021/11/15 01:47:44;271131.00;0.90;468.29;0.00;0.00;0.62;;;;;9.50;10.10;;;;;;2242144;62;1983;-88
2021/11/15 01:50:15;272836.00;0.91;471.22;0.00;0.00;0.62;;;;;9.70;8.80;;;;;;2242115;62;1284;-87
2021/11/15 01:52:43;227593.00;0.76;393.41;0.00;0.00;0.62;;;;;9.80;8.60;;;;;;2243117;61;887;-87
2021/11/15 01:55:11;497717.00;1.66;857.89;0.00;0.00;0.62;;;;;9.80;7.40;;;;;;2253509;61;939;-87
2021/11/15 01:57:42;245880.00;0.82;424.86;0.00;0.00;0.62;;;;;9.80;8.00;;;;;;2250114;61;941;-87
2021/11/15 02:02:38;304941.00;1.02;526.41;0.00;0.00;0.62;;;;;9.50;8.70;;;;;;2270808;61;1319;-88
2021/11/15 02:07:36;247497.00;0.82;427.65;0.00;0.00;0.62;;;;;9.80;7.80;;;;;;2277926;55;3606;31
2021/11/15 02:10:04;106909.00;0.36;185.50;0.00;0.00;0.62;;;;;9.90;7.80;;;;;;2505641;40;4058;31
2021/11/15 02:12:31;218327.00;0.73;377.46;0.00;0.00;0.62;;;;;9.90;8.50;;;;;;2270970;61;1238;-86
2021/11/15 02:19:56;179786.00;0.60;311.12;0.00;0.00;0.62;;;;;10.30;5.10;;;;;;2516278;39;3612;31
2021/11/15 02:42:10;118063280.00;393.54;66662208.00;26023.00;0.09;45.70;;;;;11.40;1.00;;;;;;2513308;55;3630;31
2021/11/15 03:11:59;394385.00;1.31;680.15;84566.00;0.28;146.92;;;;;11.10;1.00;;;;;;2508223;40;3466;31
2021/11/15 04:11:19;287537.00;0.96;496.50;49590.00;0.17;86.48;;;;;10.90;1.00;;;;;;2271770;61;918;-88
2021/11/15 05:08:09;99486.00;0.33;172.68;0.00;0.00;0.62;;;;;11.60;1.00;;;;;;2504712;40;3486;31
2021/11/15 06:12:37;7258.00;0.02;13.20;0.00;0.00;0.62;;;;;10.60;1.00;;;;;;2271345;61;1320;-85
2021/11/15 06:29:52;205112.00;0.68;354.72;90298.00;0.30;156.82;;;;;11.30;1.00;;;;;;2271053;61;1467;-85
2021/11/15 06:32:19;230905.00;0.77;399.11;90076.00;0.30;156.44;;;;;11.40;1.00;;;;;;2269347;61;387;-88
2021/11/15 06:34:46;365194.00;1.22;629.98;102376.00;0.34;177.67;;;;;11.50;1.00;;;;;;2272213;61;936;-88
2021/11/15 06:37:12;296682.00;0.99;512.22;76895.00;0.26;133.67;;;;;11.40;1.00;;;;;;2262371;61;933;-88
2021/11/15 06:39:39;370594.00;1.24;639.26;104647.00;0.35;181.59;;;;;11.40;1.00;;;;;;2269346;61;1396;-87
2021/11/15 06:42:07;195059.00;0.65;337.42;85899.00;0.29;149.23;;;;;11.20;1.00;;;;;;2265640;61;917;-88
2021/11/15 07:16:37;174654.00;0.58;302.28;0.00;0.00;0.62;;;;;11.10;1.00;;;;;;2271097;61;976;-87
2021/11/15 07:38:48;215495.00;0.72;372.59;0.00;0.00;0.62;;;;;12.20;1.00;;;;;;2271004;61;1406;-86
2021/11/15 07:48:44;55527.00;0.19;96.74;0.00;0.00;0.62;;;;;11.70;1.00;;;;;;2270800;61;1979;-84
2021/11/15 08:28:20;510820.00;1.70;880.45;103885.00;0.35;180.28;;;;;11.40;1.00;;;;;;2325737;55;3640;31
2021/11/15 09:06:14;550399.00;1.83;948.65;33804.00;0.11;59.17;;;;;11.60;1.00;;;;;;2271570;61;1303;-85
2021/11/15 09:28:27;337691.00;1.13;582.71;0.00;0.00;0.62;;;;;11.50;1.00;;;;;;2271329;61;1891;-86
2021/11/15 09:33:22;662810.00;2.21;1142.80;30644.00;0.10;53.70;;;;;11.60;1.00;;;;;;2270985;61;1335;-85
2021/11/15 10:03:03;133380.00;0.44;231.16;0.00;0.00;0.62;;;;;12.10;1.00;;;;;;2271303;61;1288;-86
2021/11/15 10:32:43;141580.00;0.47;245.29;0.00;0.00;0.62;;;;;12.00;1.00;;;;;;2271210;61;919;-86
2021/11/15 10:50:19;79306.00;0.26;137.84;0.00;0.00;0.62;;;;;11.90;1.00;;;;;;2270360;61;1401;-80
2021/11/15 10:53:00;106334.00;0.35;184.50;0.00;0.00;0.62;;;;;11.70;1.00;;;;;;2261941;61;962;-83
2021/11/15 10:55:27;118912.00;0.40;206.21;0.00;0.00;0.62;;;;;11.60;1.00;;;;;;2268805;61;930;-82
2021/11/15 10:57:54;83466.00;0.28;145.02;0.00;0.00;0.62;;;;;11.70;1.00;;;;;;2261514;61;1038;-83
2021/11/15 11:00:32;279291.00;0.93;482.32;0.00;0.00;0.62;;;;;11.60;1.00;;;;;;2268765;61;1428;-85
2021/11/15 11:03:11;128610.00;0.43;222.93;0.00;0.00;0.62;;;;;11.90;1.00;;;;;;2265014;61;1062;-81
2021/11/15 11:05:41;163289.00;0.54;282.71;0.00;0.00;0.62;;;;;11.90;1.00;;;;;;2268736;61;962;-81
2021/11/15 11:08:12;305274.00;1.02;526.99;0.00;0.00;0.62;;;;;11.80;1.00;;;;;;2261786;61;2015;-83
2021/11/15 11:10:48;114891.00;0.38;199.27;0.00;0.00;0.62;;;;;12.00;1.00;;;;;;2261410;61;1432;-82
2021/11/15 11:13:18;102652.00;0.34;178.15;0.00;0.00;0.62;;;;;12.00;1.00;;;;;;2261697;61;970;-82
2021/11/15 11:15:48;103242.00;0.34;179.17;0.00;0.00;0.62;;;;;12.00;1.00;;;;;;2268699;61;1052;-83
2021/11/15 11:24:22;92681.00;0.31;160.94;0.00;0.00;0.62;;;;;11.80;1.00;;;;;;2260540;61;1079;-87
2021/11/15 11:26:56;144412.00;0.48;250.18;0.00;0.00;0.62;;;;;11.50;1.00;;;;;;2238161;61;998;-83
2021/11/15 11:29:26;0.00;0.00;0.62;0.00;0.00;0.62;;;;;11.60;1.00;;;;;;2256225;61;1922;-82
2021/11/15 11:31:58;150615.00;0.50;260.87;0.00;0.00;0.62;;;;;11.90;1.00;;;;;;2256255;61;1116;-82
2021/11/15 11:34:25;69027.00;0.23;120.08;0.00;0.00;0.62;;;;;12.20;1.00;;;;;;2256320;61;922;-81
2021/11/15 11:36:53;138442.00;0.46;239.88;0.00;0.00;0.62;;;;;12.20;1.00;;;;;;2253150;61;923;-83
2021/11/15 11:41:53;117830296.00;392.77;66267972.00;0.00;0.00;0.62;;;;;12.40;1.00;;;;;;2270424;61;1411;-83
2021/11/15 11:44:24;167681.00;0.56;290.27;0.00;0.00;0.62;;;;;12.70;1.00;;;;;;2268599;61;1009;-81
2021/11/15 11:46:51;120687040.00;402.29;71210336.00;0.00;0.00;0.62;;;;;12.70;1.00;;;;;;2264868;61;1001;-80
2021/11/15 11:49:24;92527.00;0.31;160.67;0.00;0.00;0.62;;;;;12.50;1.00;;;;;;2269075;61;1919;-81
2021/11/15 11:51:54;103217.00;0.34;179.12;0.00;0.00;0.62;;;;;12.60;1.00;;;;;;2265803;61;961;-80
2021/11/15 11:57:13;175770.00;0.59;304.20;0.00;0.00;0.62;;;;;12.70;1.00;;;;;;2271120;61;1421;-84
2021/11/15 11:59:57;35249.00;0.12;61.67;0.00;0.00;0.62;;;;;12.80;1.00;;;;;;2254247;61;1442;-80
2021/11/15 12:02:26;135921.00;0.45;235.54;0.00;0.00;0.62;;;;;12.90;1.00;;;;;;2257508;61;1010;-82
2021/11/15 12:04:58;62776.00;0.21;109.28;0.00;0.00;0.62;;;;;12.60;1.00;;;;;;2256723;61;1045;-84
2021/11/15 12:07:29;66761.00;0.22;116.16;0.00;0.00;0.62;;;;;12.60;1.00;;;;;;2256540;61;2003;-85
2021/11/15 12:09:58;27886.00;0.09;48.92;0.00;0.00;0.62;;;;;12.90;1.00;;;;;;2256644;61;1464;-84
2021/11/15 12:12:25;184816.00;0.62;319.78;0.00;0.00;0.62;;;;;12.90;1.00;;;;;;2256750;61;1046;-86
2021/11/15 12:14:53;69738.00;0.23;121.31;0.00;0.00;0.62;;;;;13.10;1.00;;;;;;2253266;61;1047;-84
2021/11/15 12:17:21;122794.00;0.41;212.90;0.00;0.00;0.62;;;;;13.00;1.00;;;;;;2252727;61;967;-81
2021/11/15 12:20:15;142903.00;0.48;247.58;0.00;0.00;0.62;;;;;12.80;1.00;;;;;;2242718;61;1394;-84
2021/11/15 12:23:11;121330.00;0.40;210.38;0.00;0.00;0.62;;;;;12.30;1.00;;;;;;2244483;61;1010;-82
2021/11/15 12:25:38;208033.00;0.69;359.75;0.00;0.00;0.62;;;;;12.30;1.00;;;;;;2252730;61;1020;-85
2021/11/15 12:28:05;86088.00;0.29;149.55;0.00;0.00;0.62;;;;;12.60;1.00;;;;;;2249878;61;1916;-83
2021/11/15 12:30:35;73914.00;0.25;128.52;0.00;0.00;0.62;;;;;12.60;1.00;;;;;;2256437;61;1373;-83
2021/11/15 12:33:23;68549.00;0.23;119.25;0.00;0.00;0.62;;;;;12.60;1.00;;;;;;2255863;61;1003;-81
2021/11/15 12:36:00;126509.00;0.42;219.31;0.00;0.00;0.62;;;;;12.50;1.00;;;;;;2254992;61;1047;-82
2021/11/15 12:38:40;28022.00;0.09;49.16;0.00;0.00;0.62;;;;;12.80;1.00;;;;;;2264673;61;1077;-83
2021/11/15 12:41:33;38172.00;0.13;66.73;0.00;0.00;0.62;;;;;12.70;1.00;;;;;;2258675;61;989;-82
2021/11/15 12:44:15;120410.00;0.40;208.79;0.00;0.00;0.62;;;;;12.30;1.00;;;;;;2268202;61;988;-81
2021/11/15 12:46:44;12509.00;0.04;22.30;0.00;0.00;0.62;;;;;12.20;1.00;;;;;;2268894;61;1005;-82
2021/11/15 12:49:21;46191.00;0.15;80.60;0.00;0.00;0.62;;;;;12.20;1.00;;;;;;2268702;61;2000;-83
2021/11/15 12:52:13;76827.00;0.26;133.56;0.00;0.00;0.62;;;;;12.30;1.00;;;;;;2268586;61;1019;-81
2021/11/15 12:54:44;123644.00;0.41;214.37;0.00;0.00;0.62;;;;;12.10;1.00;;;;;;2258598;61;1008;-82
2021/11/15 12:57:27;66281.00;0.22;115.33;0.00;0.00;0.62;;;;;12.30;1.00;;;;;;2261619;61;1101;-84
2021/11/15 12:59:57;131837.00;0.44;228.50;0.00;0.00;0.62;;;;;12.00;1.00;;;;;;2261268;61;1247;-83
2021/11/15 13:02:24;55476.00;0.18;96.66;0.00;0.00;0.62;;;;;12.70;1.00;;;;;;2268571;61;1001;-84
2021/11/15 13:04:51;129979.00;0.43;225.29;0.00;0.00;0.62;;;;;13.00;1.00;;;;;;2268494;61;935;-84
2021/11/15 13:07:20;66888.00;0.22;116.38;0.00;0.00;0.62;;;;;12.30;1.00;;;;;;2268584;61;1013;-81
2021/11/15 13:09:49;92231.00;0.31;160.16;0.00;0.00;0.62;;;;;11.30;1.00;;;;;;2268506;61;1997;-82
2021/11/15 13:12:16;168296.00;0.56;291.33;0.00;0.00;0.62;;;;;11.30;1.00;;;;;;2268782;61;943;-83
2021/11/15 13:14:43;243644.00;0.81;421.02;0.00;0.00;0.62;;;;;11.70;1.00;;;;;;2268706;61;993;-82
2021/11/15 13:17:15;160113.00;0.53;277.23;0.00;0.00;0.62;;;;;12.10;1.00;;;;;;2269036;61;943;-81
2021/11/15 13:19:43;35991.00;0.12;62.95;0.00;0.00;0.62;;;;;12.10;1.00;;;;;;2268540;61;1333;-83
2021/11/15 13:22:09;66813.00;0.22;116.25;0.00;0.00;0.62;;;;;11.90;1.00;;;;;;2268713;61;1004;-82
2021/11/15 13:24:38;54350.00;0.18;94.71;0.00;0.00;0.62;;;;;12.40;1.00;;;;;;2268997;61;1006;-84
2021/11/15 13:27:07;49002.00;0.16;85.46;0.00;0.00;0.62;;;;;13.20;1.00;;;;;;2265491;61;1012;-83
2021/11/15 13:29:34;124701.00;0.42;216.19;0.00;0.00;0.62;;;;;13.10;1.00;;;;;;2265240;61;2017;-83
2021/11/15 13:32:01;42792.00;0.14;74.72;0.00;0.00;0.62;;;;;12.60;1.00;;;;;;2268658;61;1060;-83
2021/11/15 13:34:29;61447.00;0.20;106.98;0.00;0.00;0.62;;;;;12.40;1.00;;;;;;2268504;61;1047;-80
2021/11/15 13:36:59;139778.00;0.47;242.19;0.00;0.00;0.62;;;;;12.30;1.00;;;;;;2265530;61;998;-83
2021/11/15 13:39:26;117365.00;0.39;203.54;0.00;0.00;0.62;;;;;12.40;1.00;;;;;;2268590;61;1409;-82
2021/11/15 13:41:53;107680.00;0.36;186.83;0.00;0.00;0.62;;;;;12.50;1.00;;;;;;2261862;61;1017;-85
2021/11/15 13:44:21;147751.00;0.49;255.93;0.00;0.00;0.62;;;;;12.10;1.00;;;;;;2258605;61;1033;-82
2021/11/15 13:46:48;84960.00;0.28;147.60;0.00;0.00;0.62;;;;;12.30;1.00;;;;;;2261920;61;1005;-82
2021/11/15 13:49:15;48393.00;0.16;84.41;0.00;0.00;0.62;;;;;12.40;1.00;;;;;;2268518;61;2003;-82
2021/11/15 13:51:42;110269.00;0.37;191.29;0.00;0.00;0.62;;;;;12.20;1.00;;;;;;2261906;61;978;-84
2021/11/15 13:54:10;69928.00;0.23;121.64;0.00;0.00;0.62;;;;;12.10;1.00;;;;;;2268603;61;1038;-83
2021/11/15 13:56:37;102872.00;0.34;178.53;0.00;0.00;0.62;;;;;12.30;1.00;;;;;;2260272;61;993;-83
2021/11/15 13:59:05;14754.00;0.05;26.18;0.00;0.00;0.62;;;;;12.40;1.00;;;;;;2264239;61;1298;-82
2021/11/15 14:01:33;498404.00;1.66;859.08;75229.00;0.25;130.80;;;;;11.80;1.00;;;;;;2264288;61;1041;-82
2021/11/15 14:04:00;116560.00;0.39;202.15;0.00;0.00;0.62;;;;;11.60;1.00;;;;;;2260968;61;1056;-85
2021/11/15 14:06:28;106530.00;0.36;184.84;0.00;0.00;0.62;;;;;11.40;1.00;;;;;;2264379;61;958;-83
2021/11/15 14:08:57;14200.00;0.05;25.22;0.00;0.00;0.62;;;;;10.90;1.00;;;;;;2257612;61;1908;-86
2021/11/15 14:17:31;104806.00;0.35;181.87;0.00;0.00;0.62;;;;;11.40;1.00;;;;;;2268799;61;671;-79
2021/11/15 14:19:58;93081.00;0.31;161.63;0.00;0.00;0.62;;;;;11.40;1.00;;;;;;2267856;61;1257;-84
2021/11/15 14:22:25;160389.00;0.53;277.71;0.00;0.00;0.62;;;;;11.80;1.00;;;;;;2264396;61;1000;-81
2021/11/15 14:24:52;94898.00;0.32;164.76;0.00;0.00;0.62;;;;;11.60;1.00;;;;;;2257923;61;949;-81
2021/11/15 14:27:20;131517.00;0.44;227.95;0.00;0.00;0.62;;;;;11.40;1.00;;;;;;2261216;61;1128;-82
2021/11/15 14:29:48;128656.00;0.43;223.01;0.00;0.00;0.62;;;;;11.30;1.00;;;;;;2257785;61;1994;-88
2021/11/15 14:32:16;114109.00;0.38;197.92;0.00;0.00;0.62;;;;;11.60;1.00;;;;;;2261109;61;952;-82
2021/11/15 14:34:46;68653.00;0.23;119.43;0.00;0.00;0.62;;;;;11.60;1.00;;;;;;2264013;61;1028;-83
2021/11/15 14:37:16;114883.00;0.38;199.26;0.00;0.00;0.62;;;;;11.80;1.00;;;;;;2260464;61;967;-83
2021/11/15 14:39:43;80651.00;0.27;140.16;0.00;0.00;0.62;;;;;12.00;1.00;;;;;;2260035;61;1298;-83
2021/11/15 14:42:10;104800.00;0.35;181.86;0.00;0.00;0.62;;;;;11.80;1.00;;;;;;2260923;61;1005;-85
2021/11/15 14:44:38;405019.00;1.35;698.43;38605.00;0.13;67.47;;;;;11.20;1.00;;;;;;2264195;61;1015;-83
2021/11/15 14:47:07;106631.00;0.36;185.02;0.00;0.00;0.62;;;;;10.90;1.00;;;;;;2257746;61;956;-81
2021/11/15 14:49:34;214056.00;0.71;370.12;57608.00;0.19;100.34;;;;;11.30;1.00;;;;;;2264199;61;1908;-81
2021/11/15 14:52:03;164595.00;0.55;284.96;0.00;0.00;0.62;;;;;11.90;1.00;;;;;;2264203;61;1008;-81
2021/11/15 14:54:30;122320.00;0.41;212.08;0.00;0.00;0.62;;;;;12.10;1.00;;;;;;2258582;61;993;-84
2021/11/15 14:56:57;70998.00;0.24;123.48;0.00;0.00;0.62;;;;;11.90;1.00;;;;;;2268899;61;1011;-82
2021/11/15 14:59:24;49762.00;0.17;86.77;0.00;0.00;0.62;;;;;11.70;1.00;;;;;;2268350;61;1502;-83
2021/11/15 15:01:53;106249.00;0.35;184.36;0.00;0.00;0.62;;;;;11.90;1.00;;;;;;2265341;61;976;-83
2021/11/15 15:04:21;128899.00;0.43;223.43;0.00;0.00;0.62;;;;;12.00;1.00;;;;;;2268486;61;1000;-83
2021/11/15 15:06:50;67226.00;0.22;116.97;0.00;0.00;0.62;;;;;12.10;1.00;;;;;;2268349;61;1041;-83
2021/11/15 15:09:22;120232.00;0.40;208.48;0.00;0.00;0.62;;;;;12.20;1.00;;;;;;2267902;61;1993;-84
2021/11/15 15:11:50;65582.00;0.22;114.13;0.00;0.00;0.62;;;;;11.90;1.00;;;;;;2268483;61;1051;-84
2021/11/15 15:14:17;95614.00;0.32;166.00;0.00;0.00;0.62;;;;;11.80;1.00;;;;;;2261709;61;1028;-81
2021/11/15 15:16:46;140062.00;0.47;242.68;0.00;0.00;0.62;;;;;12.10;1.00;;;;;;2261664;61;986;-82
2021/11/15 15:19:16;136432.00;0.45;236.42;0.00;0.00;0.62;;;;;12.10;1.00;;;;;;2261625;61;1420;-82
2021/11/15 15:21:45;49536.00;0.17;86.38;0.00;0.00;0.62;;;;;11.80;1.00;;;;;;2267804;61;1001;-81
2021/11/15 15:24:14;68185.00;0.23;118.62;0.00;0.00;0.62;;;;;11.80;1.00;;;;;;2259209;61;1006;-84
2021/11/15 15:26:44;123880.00;0.41;214.77;0.00;0.00;0.62;;;;;11.80;1.00;;;;;;2268965;61;959;-83
2021/11/15 15:29:13;26867.00;0.09;47.16;0.00;0.00;0.62;;;;;11.80;1.00;;;;;;2256682;61;1997;-83
2021/11/15 15:31:41;108714.00;0.36;188.61;0.00;0.00;0.62;;;;;11.80;1.00;;;;;;2250380;61;1039;-81
2021/11/15 15:34:09;59817.00;0.20;104.16;0.00;0.00;0.62;;;;;11.80;1.00;;;;;;2250288;61;1005;-82
2021/11/15 15:36:36;142173.00;0.47;246.32;0.00;0.00;0.62;;;;;12.00;1.00;;;;;;2257165;61;1022;-83
2021/11/15 15:39:04;124492.00;0.41;215.83;0.00;0.00;0.62;;;;;12.20;1.00;;;;;;2247124;61;1418;-87
2021/11/15 15:41:33;31541.00;0.11;55.25;0.00;0.00;0.62;;;;;12.20;1.00;;;;;;2247211;61;959;-84
2021/11/15 15:44:02;149225.00;0.50;258.47;0.00;0.00;0.62;;;;;12.10;1.00;;;;;;2251142;61;1027;-83
2021/11/15 15:46:29;106079.00;0.35;184.06;0.00;0.00;0.62;;;;;12.20;1.00;;;;;;2269409;61;965;-82
2021/11/15 15:48:59;89984.00;0.30;156.28;0.00;0.00;0.62;;;;;12.10;1.00;;;;;;2268910;61;1998;-84
2021/11/15 15:51:27;220039.00;0.73;380.41;0.00;0.00;0.62;;;;;12.30;1.00;;;;;;2262265;61;1130;-83
2021/11/15 15:53:57;84176.00;0.28;146.25;0.00;0.00;0.62;;;;;12.10;1.00;;;;;;2261871;61;1301;-85
2021/11/15 15:56:29;360794.00;1.20;622.41;106021.00;0.35;183.96;;;;;12.10;1.00;;;;;;2262374;61;951;-81
2021/11/15 15:58:57;8557.00;0.03;15.45;0.00;0.00;0.62;;;;;12.00;1.00;;;;;;2269047;61;1424;-83
2021/11/15 16:01:25;40513.00;0.14;70.78;0.00;0.00;0.62;;;;;11.80;1.00;;;;;;2265457;61;1051;-81
2021/11/15 16:03:58;152721.00;0.51;264.50;0.00;0.00;0.62;;;;;11.70;1.00;;;;;;2268024;61;1912;-83
2021/11/15 16:17:41;132883.00;0.44;230.30;0.00;0.00;0.62;;;;;11.60;1.00;;;;;;2252915;61;993;-85
2021/11/15 16:20:10;192113.00;0.64;332.35;54505.00;0.18;94.98;;;;;11.80;1.00;;;;;;2248709;61;1342;-83
2021/11/15 16:22:41;0.00;0.00;0.62;0.00;0.00;0.62;;;;;11.80;1.00;;;;;;2244833;61;1038;-84
2021/11/15 16:25:08;116383.00;0.39;201.84;0.00;0.00;0.62;;;;;11.80;1.00;;;;;;2241603;61;957;-84
2021/11/15 16:27:36;186821.00;0.62;323.24;0.00;0.00;0.62;;;;;11.70;1.00;;;;;;2244910;61;1060;-83
2021/11/15 16:30:04;210897.00;0.70;364.68;0.00;0.00;0.62;;;;;11.90;1.00;;;;;;2244729;61;2006;-84
2021/11/15 16:32:31;56861.00;0.19;99.05;0.00;0.00;0.62;;;;;12.00;1.00;;;;;;2236733;62;1027;-82
2021/11/15 16:34:59;67578.00;0.23;117.57;0.00;0.00;0.62;;;;;12.00;1.00;;;;;;2227057;62;1056;-82
2021/11/15 16:37:26;62666.00;0.21;109.09;0.00;0.00;0.62;;;;;12.00;1.00;;;;;;2227975;62;1055;-81
2021/11/15 16:39:53;116851.00;0.39;202.65;0.00;0.00;0.62;;;;;11.90;1.00;;;;;;2241457;61;1438;-83
2021/11/15 16:42:20;27498.00;0.09;48.25;0.00;0.00;0.62;;;;;11.90;1.00;;;;;;2238410;61;1014;-83
2021/11/15 16:47:19;212352.00;0.71;367.18;0.00;0.00;0.62;;;;;11.80;1.00;;;;;;2274670;61;1174;-82
2021/11/15 16:57:11;380549.00;1.27;656.37;0.00;0.00;0.62;;;;;11.50;1.00;;;;;;2270595;61;1387;-82
2021/11/15 16:59:38;197915.00;0.66;342.33;11930.00;0.04;21.29;;;;;11.50;1.00;;;;;;2265562;61;1449;-83
2021/11/15 17:02:12;154554.00;0.52;267.66;0.00;0.00;0.62;;;;;11.50;1.00;;;;;;2269252;61;1001;-83
2021/11/15 17:04:39;142927.00;0.48;247.62;0.00;0.00;0.62;;;;;11.40;1.00;;;;;;2264698;61;966;-83
2021/11/15 17:12:12;138708.00;0.46;240.34;0.00;0.00;0.62;;;;;11.50;1.00;;;;;;2271165;61;1640;-84
2021/11/15 17:14:40;110054.00;0.37;190.92;0.00;0.00;0.62;;;;;11.50;1.00;;;;;;2265354;61;990;-83
2021/11/15 17:17:07;96868.00;0.32;168.17;0.00;0.00;0.62;;;;;11.50;1.00;;;;;;2265379;61;1008;-82
2021/11/15 17:19:38;41460.00;0.14;72.41;0.00;0.00;0.62;;;;;11.40;1.00;;;;;;2269049;61;1419;-81
2021/11/15 17:22:06;80524.00;0.27;139.94;0.00;0.00;0.62;;;;;11.50;1.00;;;;;;2265381;61;1012;-80
2021/11/15 17:24:34;319407.00;1.06;551.28;0.00;0.00;0.62;;;;;11.50;1.00;;;;;;2265431;61;953;-81
2021/11/15 17:27:01;76869.00;0.26;133.63;0.00;0.00;0.62;;;;;11.50;1.00;;;;;;2260291;61;1083;-83
2021/11/15 17:29:30;211584.00;0.71;365.86;0.00;0.00;0.62;;;;;11.10;1.00;;;;;;2260391;61;2009;-83
2021/11/15 17:31:58;146916.00;0.49;254.49;0.00;0.00;0.62;;;;;10.90;1.00;;;;;;2253938;61;1063;-82
2021/11/15 17:34:25;120150.00;0.40;208.34;0.00;0.00;0.62;;;;;11.00;1.00;;;;;;2252520;61;1030;-85
2021/11/15 17:36:52;87783.00;0.29;152.48;0.00;0.00;0.62;;;;;11.20;1.00;;;;;;2255565;61;1003;-83
2021/11/15 17:39:19;120147.00;0.40;208.34;0.00;0.00;0.62;;;;;11.20;1.00;;;;;;2252485;61;1267;-82
2021/11/15 17:41:47;102191.00;0.34;177.35;0.00;0.00;0.62;;;;;11.10;1.00;;;;;;2252562;61;1056;-81
2021/11/15 17:44:14;43957.00;0.15;76.73;0.00;0.00;0.62;;;;;11.20;1.00;;;;;;2254300;61;1038;-84
2021/11/15 17:46:52;159247.00;0.53;275.74;0.00;0.00;0.62;;;;;11.20;1.00;;;;;;2257707;61;1017;-84
2021/11/15 17:49:20;71521.00;0.24;124.39;0.00;0.00;0.62;;;;;11.20;1.00;;;;;;2264379;61;1996;-85
2021/11/15 17:51:50;14946.00;0.05;26.52;0.00;0.00;0.62;;;;;11.30;1.00;;;;;;2264620;61;1001;-83
2021/11/15 17:54:20;89127.00;0.30;154.80;0.00;0.00;0.62;;;;;11.00;1.00;;;;;;2257919;61;1004;-84
2021/11/15 17:56:48;45225.00;0.15;78.93;0.00;0.00;0.62;;;;;10.70;1.00;;;;;;2264605;61;985;-85
2021/11/15 17:59:18;132615.00;0.44;229.84;0.00;0.00;0.62;;;;;10.80;1.00;;;;;;2257454;61;1222;-83
2021/11/15 18:01:47;150186.00;0.50;260.13;0.00;0.00;0.62;;;;;10.80;1.00;;;;;;2256555;61;981;-80
2021/11/15 18:04:14;21432.00;0.07;37.75;0.00;0.00;0.62;;;;;10.90;1.00;;;;;;2250336;61;1005;-84
2021/11/15 18:06:44;0.00;0.00;0.62;0.00;0.00;0.62;;;;;10.80;1.00;;;;;;2251103;61;1016;-84
2021/11/15 18:09:12;23058.00;0.08;40.57;0.00;0.00;0.62;;;;;10.80;1.00;;;;;;2260151;61;1981;-84
2021/11/15 18:11:40;147852.00;0.49;256.11;0.00;0.00;0.62;;;;;10.90;1.00;;;;;;2260139;61;1033;-83
2021/11/15 18:14:10;59829.00;0.20;104.18;0.00;0.00;0.62;;;;;10.90;1.00;;;;;;2260568;61;1032;-82
2021/11/15 18:16:39;119123.00;0.40;206.57;0.00;0.00;0.62;;;;;11.10;1.00;;;;;;2247910;61;934;-84
2021/11/15 18:19:10;266637.00;0.89;460.56;0.00;0.00;0.62;;;;;11.00;1.00;;;;;;2238829;61;1395;-81
2021/11/15 18:21:39;87115.00;0.29;151.33;0.00;0.00;0.62;;;;;11.00;1.00;;;;;;2248739;61;1018;-82
2021/11/15 18:24:08;113742.00;0.38;197.29;0.00;0.00;0.62;;;;;10.90;1.00;;;;;;2248700;61;914;-84
2021/11/15 18:26:36;206724.00;0.69;357.50;0.00;0.00;0.62;;;;;10.80;1.00;;;;;;2252962;61;980;-80
2021/11/15 18:29:03;47753.00;0.16;83.30;0.00;0.00;0.62;;;;;10.60;1.00;;;;;;2252283;61;1377;-83
2021/11/15 18:31:33;107057.00;0.36;185.75;0.00;0.00;0.62;;;;;10.50;1.00;;;;;;2245953;61;2003;-83
2021/11/15 18:34:00;79312.00;0.26;137.85;0.00;0.00;0.62;;;;;10.50;1.00;;;;;;2247775;61;970;-84
2021/11/15 18:36:28;120479.00;0.40;208.91;0.00;0.00;0.62;;;;;10.60;1.00;;;;;;2264242;61;1097;-81
2021/11/15 18:38:57;386180.00;1.29;666.05;0.00;0.00;0.62;;;;;10.80;1.00;;;;;;2257624;61;1436;-83
2021/11/15 18:41:24;78770.00;0.26;136.91;0.00;0.00;0.62;;;;;10.90;1.00;;;;;;2263845;61;935;-85
2021/11/15 18:46:20;130671.00;0.44;226.49;0.00;0.00;0.62;;;;;10.80;1.00;;;;;;2270816;61;1397;-82
2021/11/15 18:48:48;142478.00;0.47;246.84;0.00;0.00;0.62;;;;;10.80;1.00;;;;;;2268893;61;1333;-85
2021/11/15 18:51:19;85939.00;0.29;149.29;0.00;0.00;0.62;;;;;10.80;1.00;;;;;;2265034;61;1926;-83
2021/11/15 18:53:48;47109.00;0.16;82.19;0.00;0.00;0.62;;;;;11.00;1.00;;;;;;2265084;61;928;-83
2021/11/15 18:56:15;47963.00;0.16;83.66;0.00;0.00;0.62;;;;;11.10;1.00;;;;;;2264116;61;954;-83
2021/11/15 18:58:42;287690.00;0.96;496.76;0.00;0.00;0.62;;;;;11.30;1.00;;;;;;2263776;61;1299;-84
2021/11/15 19:01:09;314003.00;1.05;541.99;0.00;0.00;0.62;;;;;11.20;1.00;;;;;;2264388;61;1019;-84
2021/11/15 19:03:37;194365.00;0.65;336.22;0.00;0.00;0.62;;;;;11.20;1.00;;;;;;2256124;61;950;-80
2021/11/15 19:06:04;232848.00;0.78;402.45;0.00;0.00;0.62;;;;;11.20;1.00;;;;;;2256120;61;1034;-84
2021/11/15 19:08:38;91415.00;0.30;158.75;0.00;0.00;0.62;;;;;11.20;1.00;;;;;;2255967;61;950;-84
2021/11/15 19:11:13;280707.00;0.94;484.75;0.00;0.00;0.62;;;;;11.10;1.00;;;;;;2248187;61;2021;-82
2021/11/15 19:13:46;138045.00;0.46;239.20;0.00;0.00;0.62;;;;;11.10;1.00;;;;;;2249944;61;937;-84
2021/11/15 19:16:15;74285.00;0.25;129.16;0.00;0.00;0.62;;;;;11.20;1.00;;;;;;2256135;61;1024;-81
2021/11/15 19:18:43;104690.00;0.35;181.67;0.00;0.00;0.62;;;;;11.30;1.00;;;;;;2252097;61;1445;-83
2021/11/15 19:21:11;213396.00;0.71;368.98;0.00;0.00;0.62;;;;;11.50;1.00;;;;;;2249391;61;962;-81
2021/11/15 19:23:38;57272.00;0.19;99.76;0.00;0.00;0.62;;;;;11.40;1.00;;;;;;2255589;61;961;-84
2021/11/15 19:26:08;136987.00;0.46;237.38;0.00;0.00;0.62;;;;;11.60;1.00;;;;;;2253271;61;1021;-83
2021/11/15 19:28:36;74114.00;0.25;128.87;0.00;0.00;0.62;;;;;11.50;1.00;;;;;;2249939;61;1354;-82
2021/11/15 19:31:03;117297.00;0.39;203.42;0.00;0.00;0.62;;;;;11.50;1.00;;;;;;2252880;61;2001;-82
2021/11/15 19:33:34;102017.00;0.34;177.05;0.00;0.00;0.62;;;;;11.50;1.00;;;;;;2249372;61;980;-82
2021/11/15 19:36:01;215194.00;0.72;372.07;0.00;0.00;0.62;;;;;11.50;1.00;;;;;;2249610;61;945;-83
2021/11/15 19:38:28;148580.00;0.50;257.36;0.00;0.00;0.62;;;;;11.50;1.00;;;;;;2256938;61;1156;-83
2021/11/15 19:40:55;433130.00;1.44;746.77;44084.00;0.15;76.95;;;;;11.50;1.00;;;;;;2253614;61;1335;-82
2021/11/15 19:43:24;207009.00;0.69;357.99;0.00;0.00;0.62;;;;;11.60;1.00;;;;;;2257067;61;962;-84
2021/11/15 19:45:51;98991.00;0.33;171.83;0.00;0.00;0.62;;;;;11.60;1.00;;;;;;2260159;61;1062;-85